< < Back
Terminal Aerodrome Forecast


Current Version              Previous Versions:   1  2  3  4  5  6  7  8  9  

Terminal Aerodrome Forecast

204
FTUS44 KOHX 041740
TAFCSV
TAF
KCSV 041740Z 0418/0518 27007KT P6SM VCTS SCT012 BKN015CB OVC030
     FM050600 VRB04KT 2SM SHRA BR OVC007
     FM051500 20003KT P6SM VCTS OVC015CB=

Latest METAR

249
SAUS70 KWBC 041900 RRB
MTRCSV
METAR KCSV 041853Z AUTO 25005KT 10SM FEW017 SCT030 BKN048 24/19 A3006
RMK AO2 SLP159 T02390189


USA.gov is the U.S. government's official web portal to all federal, state and local government web resources and services.